KSWF

Stewart International Airport

New York, New York, USA
KSWF 181122Z 1812/1918 VRB03KT 6SM BR BKN007 OVC013 TEMPO 1812/1815 SCT007 OVC013 FM181500 VRB03KT P6SM BKN025 FM182200 28005KT P6SM SCT025 SCT250 FM190400 31005KT P6SM SCT250 FM191500 06007KT P6SM SCT080 BKN150 AMD NOT SKED
Issued Valid From Valid To
Jan-18 @ 11:22 UTC
(27 minutes ago)
Jan-18 @ 12:00 UTC
(in 11 minutes)
Jan-19 @ 18:00 UTC
(-1 days ago)
Jan-18 @ 12:00 to Jan-18 @ 15:00
KSWF 181122Z 1812/1918 VRB03KT 6SM BR BKN007 OVC013
Wind Visibility Clouds Conditions
Variable at 3 knots 6 miles
  • Broken at 700' AGL
  • Overcast at 1,300' AGL
  • Mist
Temporary Jan-18 @ 12:00 to Jan-18 @ 15:00
TEMPO 1812/1815 SCT007 OVC013
Clouds
  • Scattered at 700' AGL
  • Overcast at 1,300' AGL
From Jan-18 @ 15:00 to Jan-18 @ 22:00
FM181500 VRB03KT P6SM BKN025
Wind Visibility Clouds
Variable at 3 knots Greater than 6 miles
  • Broken at 2,500' AGL
From Jan-18 @ 22:00 to Jan-19 @ 04:00
FM182200 28005KT P6SM SCT025 SCT250
Wind Visibility Clouds
280° at 5 knots Greater than 6 miles
  • Scattered at 2,500' AGL
  • Scattered at 25,000' AGL
From Jan-19 @ 04:00 to Jan-19 @ 15:00
FM190400 31005KT P6SM SCT250
Wind Visibility Clouds
310° at 5 knots Greater than 6 miles
  • Scattered at 25,000' AGL
From Jan-19 @ 15:00 to Jan-19 @ 18:00
FM191500 06007KT P6SM SCT080 BKN150 AMD NOT SKED
Wind Visibility Clouds
60° at 7 knots Greater than 6 miles
  • Scattered at 8,000' AGL
  • Broken at 15,000' AGL
KSWF 181122Z 1812/1918 VRB03KT 6SM BR BKN007 OVC013 TEMPO 1812/1815 SCT007 OVC013 FM181500 VRB03KT P6SM BKN025 FM182200 28005KT P6SM SCT025 SCT250 FM190400 31005KT P6SM SCT250 FM191500 06007KT P6SM SCT080 BKN150 AMD NOT SKED
Issued Jan-18 @ 11:22 UTC
(27 minutes ago)
Valid From Jan-18 @ 12:00 UTC
(in 11 minutes)
Valid To Jan-19 @ 18:00 UTC
(-1 days ago)
Jan-18 @ 12:00 - Jan-18 @ 15:00
Wind Visibility
Variable at 3 knots 6 miles
Clouds
  • Broken at 700' AGL
  • Overcast at 1,300' AGL
Conditions
  • Mist
Temporary Jan-18 @ 12:00 - Jan-18 @ 15:00
Clouds
  • Scattered at 700' AGL
  • Overcast at 1,300' AGL
From Jan-18 @ 15:00 - Jan-18 @ 22:00
Wind Visibility
Variable at 3 knots Greater than 6 miles
Clouds
  • Broken at 2,500' AGL
From Jan-18 @ 22:00 - Jan-19 @ 04:00
Wind Visibility
280° at 5 knots Greater than 6 miles
Clouds
  • Scattered at 2,500' AGL
  • Scattered at 25,000' AGL
From Jan-19 @ 04:00 - Jan-19 @ 15:00
Wind Visibility
310° at 5 knots Greater than 6 miles
Clouds
  • Scattered at 25,000' AGL
From Jan-19 @ 15:00 - Jan-19 @ 18:00
Wind Visibility
60° at 7 knots Greater than 6 miles
Clouds
  • Scattered at 8,000' AGL
  • Broken at 15,000' AGL